Time;durP1;ratioP1;P1;durP2;ratioP2;P2;SDS_P1;SDS_P2;PMS_P1;PMS_P2;Temp;Humidity;BMP_temperature;BMP_pressure;BME280_temperature;BME280_humidity;BME280_pressure;Samples;Min_cycle;Max_cycle;Signal;HPM_P1;HPM_P2
2021/04/13 00:01:14;;;;;;;29.45;17.90;;;1.20;99.90;;;2.07;85.76;102010.56;4774616;30;20092;-83
2021/04/13 00:04:18;;;;;;;31.23;19.13;;;1.20;99.90;;;2.04;86.23;102008.34;4774437;30;20416;-84
2021/04/13 00:06:51;;;;;;;28.88;17.08;;;1.10;99.90;;;1.93;86.87;101997.50;4775404;30;20031;-81
2021/04/13 00:09:30;;;;;;;31.45;18.75;;;1.10;99.90;;;1.91;86.62;102003.31;4821373;29;20457;-84
2021/04/13 00:12:09;;;;;;;29.88;18.52;;;1.10;99.90;;;1.95;86.76;102007.19;4826207;29;20035;-83
2021/04/13 00:14:46;;;;;;;30.17;18.02;;;1.00;99.90;;;1.90;87.02;102006.31;4811114;29;20030;-85
2021/04/13 00:17:19;;;;;;;30.42;19.17;;;1.00;99.90;;;1.91;87.08;101996.97;4827665;29;20125;-83
2021/04/13 00:20:11;;;;;;;30.42;17.95;;;1.00;99.90;;;1.92;87.05;101993.94;4828157;29;20101;-85
2021/04/13 00:22:40;;;;;;;29.38;17.08;;;1.00;99.90;;;1.91;87.00;102007.97;4829030;29;20053;-82
2021/04/13 00:25:19;;;;;;;30.38;17.88;;;1.00;99.90;;;1.87;87.15;101995.81;4821852;29;20071;-83
2021/04/13 00:27:49;;;;;;;32.47;17.70;;;1.00;99.90;;;1.83;86.85;102008.50;4828685;29;20038;-84
2021/04/13 00:30:22;;;;;;;32.05;18.13;;;1.00;99.90;;;1.85;86.85;102003.53;4826712;29;20033;-81
2021/04/13 00:33:03;;;;;;;30.48;17.55;;;1.00;99.90;;;1.83;86.81;102011.25;4826524;29;20180;-82
2021/04/13 00:35:44;;;;;;;31.27;18.63;;;1.00;99.90;;;1.76;86.98;102005.97;4825464;29;20045;-81
2021/04/13 00:38:37;;;;;;;33.28;18.65;;;0.90;99.90;;;1.77;86.86;102010.38;4825648;29;20034;-82
2021/04/13 00:41:18;;;;;;;33.10;17.50;;;0.90;99.90;;;1.74;86.92;102012.84;4826373;29;20030;-81
2021/04/13 00:44:02;;;;;;;28.52;18.20;;;0.90;99.90;;;1.70;86.89;102020.00;4809241;29;20023;-83
2021/04/13 00:46:48;;;;;;;28.17;16.70;;;0.80;99.90;;;1.71;86.58;102013.38;4826227;29;20030;-82
2021/04/13 00:49:22;;;;;;;30.23;16.50;;;0.80;99.90;;;1.68;86.63;102008.38;4809387;29;20038;-81
2021/04/13 00:51:56;;;;;;;30.20;16.98;;;0.80;99.90;;;1.64;87.03;102018.31;4823730;29;20091;-81
2021/04/13 00:54:38;;;;;;;30.80;17.67;;;0.70;99.90;;;1.58;87.17;102011.91;4823058;29;20037;-79
2021/04/13 00:57:45;;;;;;;30.55;19.10;;;0.70;99.90;;;1.56;87.11;102014.09;4807697;29;20034;-81
2021/04/13 01:00:47;;;;;;;;;;;0.70;99.90;;;1.57;86.87;102019.34;4785848;30;20108;-82
2021/04/13 01:03:16;;;;;;;31.33;15.95;;;0.70;99.90;;;1.54;87.06;102017.13;4822706;29;19912;-83
2021/04/13 01:05:57;;;;;;;33.13;17.75;;;0.70;99.90;;;1.51;86.91;102016.81;4822480;29;20067;-81
2021/04/13 01:08:39;;;;;;;31.70;17.73;;;0.60;99.90;;;1.50;86.82;102017.94;4819501;29;20035;-81
2021/04/13 01:11:17;;;;;;;33.63;17.75;;;0.60;99.90;;;1.50;86.85;102027.03;4793198;29;20035;-81
2021/04/13 01:13:53;;;;;;;31.25;18.15;;;0.60;99.90;;;1.41;86.76;102016.75;4793261;29;20027;-79
2021/04/13 01:16:32;;;;;;;32.97;17.67;;;0.60;99.90;;;1.37;87.02;102015.63;4793090;29;20046;-81
2021/04/13 01:19:17;;;;;;;30.48;17.10;;;0.50;99.90;;;1.36;87.23;102014.78;4793648;29;20469;-82
2021/04/13 01:22:05;;;;;;;31.38;18.13;;;0.50;99.90;;;1.38;87.24;102020.84;4808415;29;20050;-80
2021/04/13 01:24:38;;;;;;;30.13;17.45;;;0.50;99.90;;;1.41;87.56;102019.53;4808360;29;20149;-84
2021/04/13 01:27:12;;;;;;;32.45;18.38;;;0.50;99.90;;;1.37;86.99;102015.63;4793385;29;20043;-82
2021/04/13 01:29:41;;;;;;;35.55;19.15;;;0.50;99.90;;;1.32;87.54;102018.31;4794277;29;20049;-85
2021/04/13 01:32:10;;;;;;;36.40;19.00;;;0.40;99.90;;;1.31;87.76;102008.44;4793778;29;20063;-80
2021/04/13 01:34:52;;;;;;;31.58;18.00;;;0.50;99.90;;;1.31;87.34;102014.75;4793383;29;20050;-79
2021/04/13 01:37:59;;;;;;;31.65;18.33;;;0.40;99.90;;;1.33;87.11;102018.06;4808115;29;20033;-83
2021/04/13 01:43:20;;;;;;;33.22;16.70;;;0.30;99.90;;;1.17;87.33;102008.03;4809155;29;20065;-81
2021/04/13 01:45:50;;;;;;;29.58;16.90;;;0.30;99.90;;;1.13;87.51;102012.41;4808201;29;20057;-80
2021/04/13 01:48:19;;;;;;;29.48;17.42;;;0.20;99.90;;;1.09;87.75;102014.03;4808014;29;20038;-81
2021/04/13 01:51:01;;;;;;;33.58;17.92;;;0.20;99.90;;;1.06;87.74;102007.09;4809048;29;20050;-81
2021/04/13 01:53:35;;;;;;;31.30;18.33;;;0.20;99.90;;;1.05;88.42;102010.13;4793266;29;20042;-81
2021/04/13 01:56:12;;;;;;;34.38;18.98;;;0.20;99.90;;;1.09;88.00;102013.19;4792009;29;20492;-81
2021/04/13 01:59:07;;;;;;;35.40;19.17;;;0.20;99.90;;;1.06;88.42;102023.63;4808046;29;20122;-81
2021/04/13 02:01:50;;;;;;;31.60;17.60;;;0.20;99.90;;;1.04;87.81;102024.97;4792882;29;20369;-80
2021/04/13 02:04:42;;;;;;;34.75;18.50;;;0.20;99.90;;;1.05;88.64;102023.91;4792889;29;20069;-80
2021/04/13 02:07:45;;;;;;;30.80;18.98;;;0.20;99.90;;;1.04;88.41;102019.47;4808885;29;20092;-84
2021/04/13 02:10:32;;;;;;;36.22;18.90;;;0.20;99.90;;;1.01;88.14;102017.25;4810856;29;20037;-80
2021/04/13 02:13:16;;;;;;;31.90;18.15;;;0.20;99.90;;;0.98;88.61;102021.34;4792752;29;20035;-80
2021/04/13 02:15:53;;;;;;;33.15;17.77;;;0.10;99.90;;;0.98;88.36;102037.03;4809151;29;20352;-81
2021/04/13 02:18:48;;;;;;;30.17;17.85;;;0.10;99.90;;;0.96;88.41;102022.72;4808125;29;20037;-81
2021/04/13 02:21:39;;;;;;;30.02;17.92;;;0.10;99.90;;;0.98;88.55;102026.03;4808559;29;20093;-83
2021/04/13 02:24:18;;;;;;;34.30;18.42;;;0.10;99.90;;;0.98;88.58;102029.63;4809120;29;20144;-79
2021/04/13 02:26:54;;;;;;;28.65;16.92;;;0.10;99.90;;;0.94;88.63;102036.72;4807417;29;20042;-81
2021/04/13 02:29:33;;;;;;;30.83;15.80;;;0.10;99.90;;;0.94;88.34;102036.72;4807740;29;20031;-83
2021/04/13 02:32:11;;;;;;;33.65;17.20;;;0.10;99.90;;;0.94;88.53;102035.88;4792121;29;20516;-81
2021/04/13 02:34:46;;;;;;;32.75;18.30;;;0.10;99.90;;;0.94;88.43;102033.97;4809099;29;20030;-81
2021/04/13 02:37:39;;;;;;;29.65;17.10;;;0.10;99.90;;;0.93;88.18;102034.25;4807422;29;20030;-81
2021/04/13 02:40:22;;;;;;;28.13;17.48;;;0.10;99.90;;;0.96;88.31;102044.72;4800103;29;20043;-82
2021/04/13 02:42:56;;;;;;;29.33;16.67;;;0.00;99.90;;;0.95;88.24;102034.81;4811074;29;20046;-78
2021/04/13 02:45:44;;;;;;;31.20;16.33;;;0.10;99.90;;;0.94;87.95;102046.88;4793316;29;20107;-81
2021/04/13 02:48:29;;;;;;;28.95;15.60;;;0.10;99.90;;;0.96;88.09;102036.47;4825044;29;20030;-80
2021/04/13 02:51:05;;;;;;;28.33;15.18;;;0.10;99.90;;;0.98;87.93;102035.13;4793096;29;20035;-79
2021/04/13 02:53:50;;;;;;;29.23;15.68;;;0.10;99.90;;;0.97;88.15;102040.88;4806653;29;20035;-79
2021/04/13 02:56:28;;;;;;;32.05;15.57;;;0.10;99.90;;;1.03;87.79;102042.56;4791845;29;20473;-82
2021/04/13 02:59:13;;;;;;;31.48;16.15;;;0.10;99.90;;;1.03;87.95;102043.41;4791280;29;20093;-81
2021/04/13 03:01:54;;;;;;;30.38;16.85;;;0.20;99.90;;;1.06;88.08;102039.28;4806848;29;20077;-79
2021/04/13 03:04:21;;;;;;;34.38;18.35;;;0.20;99.90;;;1.10;88.25;102045.09;4791591;29;20037;-81
2021/04/13 03:06:53;;;;;;;35.80;18.83;;;0.20;99.90;;;1.15;88.30;102051.50;4807935;29;20026;-80
2021/04/13 03:09:27;;;;;;;33.05;19.85;;;0.30;99.90;;;1.16;88.25;102047.66;4805429;29;20030;-78
2021/04/13 03:12:09;;;;;;;34.88;19.40;;;0.30;99.90;;;1.19;88.17;102044.38;4826137;29;20033;-81
2021/04/13 03:14:48;;;;;;;34.33;19.08;;;0.30;99.90;;;1.24;87.92;102038.94;4809842;29;20122;-82
2021/04/13 03:17:24;;;;;;;34.15;19.67;;;0.30;99.90;;;1.19;88.08;102040.81;4824664;29;20403;-80
2021/04/13 03:20:01;;;;;;;31.60;18.52;;;0.30;99.90;;;1.20;87.95;102042.44;4824852;29;20095;-82
2021/04/13 03:22:29;;;;;;;33.92;17.30;;;0.30;99.90;;;1.15;87.90;102048.75;4809283;29;20034;-79
2021/04/13 03:24:57;;;;;;;34.30;17.83;;;0.30;99.90;;;1.14;87.89;102041.59;4824270;29;20045;-80
2021/04/13 03:27:30;;;;;;;29.83;17.05;;;0.20;99.90;;;1.10;88.12;102045.94;4824693;29;20165;-81
2021/04/13 03:30:04;;;;;;;32.13;15.75;;;0.20;99.90;;;1.03;88.02;102031.56;4824031;29;20041;-81
2021/04/13 03:32:40;;;;;;;33.40;17.63;;;0.20;99.90;;;0.99;88.28;102042.28;4824484;29;20039;-83
2021/04/13 03:35:09;;;;;;;36.03;17.70;;;0.10;99.90;;;1.02;88.58;102044.50;4825640;29;20096;-79
2021/04/13 03:37:43;;;;;;;35.58;17.90;;;0.10;99.90;;;1.03;88.38;102048.91;4825226;29;20032;-80
2021/04/13 03:40:17;;;;;;;35.20;19.38;;;0.10;99.90;;;1.08;88.53;102045.38;4823739;29;20384;-82
2021/04/13 03:42:44;;;;;;;31.40;17.73;;;0.20;99.90;;;1.14;88.92;102051.75;4813420;29;20030;-79
2021/04/13 03:45:16;;;;;;;33.85;18.95;;;0.30;99.90;;;1.25;89.12;102039.75;4824394;29;20138;-79
2021/04/13 03:47:46;;;;;;;36.92;17.95;;;0.40;99.90;;;1.32;88.89;102045.84;4823101;29;20030;-80
2021/04/13 03:50:25;;;;;;;30.65;17.20;;;0.40;99.90;;;1.48;88.33;102048.47;4807442;29;20087;-78
2021/04/13 03:53:11;;;;;;;33.10;16.55;;;0.50;99.90;;;1.56;88.15;102041.66;4806949;29;20031;-79
2021/04/13 03:55:38;;;;;;;32.75;16.30;;;0.60;99.90;;;1.54;87.60;102041.91;4787125;30;20088;-82
2021/04/13 03:58:31;;;;;;;34.83;16.80;;;0.60;99.90;;;1.42;88.09;102043.19;4771898;30;20121;-78
2021/04/13 04:00:57;;;;;;;27.42;15.70;;;0.60;99.90;;;1.33;88.70;102045.59;4789977;30;20035;-81
2021/04/13 04:03:32;;;;;;;35.72;17.13;;;0.70;99.90;;;1.39;88.75;102046.47;4774211;30;20134;-79
2021/04/13 04:05:59;;;;;;;31.50;17.00;;;0.70;99.90;;;1.38;88.50;102042.88;4774082;30;20378;-82
2021/04/13 04:08:49;;;;;;;31.95;15.38;;;0.70;99.90;;;1.42;88.69;102043.19;4787229;29;20046;-80
2021/04/13 04:11:16;;;;;;;26.67;15.65;;;0.70;99.90;;;1.44;88.86;102041.84;4824657;29;20433;-82
2021/04/13 04:13:50;;;;;;;23.63;14.35;;;0.70;99.90;;;1.48;88.52;102047.63;4824014;29;20030;-80
2021/04/13 04:16:32;;;;;;;28.35;14.48;;;0.80;99.90;;;1.47;88.82;102046.00;4825660;29;20096;-81
2021/04/13 04:19:17;;;;;;;24.02;13.10;;;0.70;99.90;;;1.53;88.70;102054.03;4826280;29;20038;-82
2021/04/13 04:22:00;;;;;;;28.27;15.48;;;0.80;99.90;;;1.62;88.50;102053.53;4808361;29;20335;-81
2021/04/13 04:24:37;;;;;;;26.13;13.90;;;0.80;99.90;;;1.65;88.63;102053.00;4824719;29;20487;-81
2021/04/13 04:27:15;;;;;;;26.75;14.32;;;0.90;99.90;;;1.71;88.59;102060.19;4809407;29;20560;-79
2021/04/13 04:29:48;;;;;;;25.98;14.30;;;0.90;99.90;;;1.74;88.28;102055.00;4809227;29;20038;-82
2021/04/13 04:32:29;;;;;;;33.95;14.23;;;1.00;99.90;;;1.86;88.15;102060.31;4826804;29;20476;-79
2021/04/13 04:35:00;;;;;;;23.92;13.93;;;1.10;99.90;;;1.86;87.86;102074.91;4826830;29;20456;-81
2021/04/13 04:37:32;;;;;;;24.42;13.18;;;1.10;99.90;;;1.98;87.73;102078.31;4827251;29;20023;-80
2021/04/13 04:40:18;;;;;;;27.77;13.55;;;1.20;99.90;;;2.01;87.38;102075.00;4825957;29;20492;-82
2021/04/13 04:42:54;;;;;;;;;;;1.20;99.90;;;2.03;87.56;102080.25;4826290;29;20023;-78
2021/04/13 04:45:43;;;;;;;22.27;12.60;;;1.30;99.90;;;2.16;86.96;102078.94;4784993;29;19968;-82
2021/04/13 04:48:36;;;;;;;23.70;12.65;;;1.30;99.90;;;2.34;86.17;102084.00;4808211;29;20046;-83
2021/04/13 04:51:08;;;;;;;20.20;13.07;;;1.40;99.90;;;2.39;85.89;102086.78;4807030;29;20385;-82
2021/04/13 04:53:36;;;;;;;21.05;12.50;;;1.40;99.90;;;2.44;85.41;102095.91;4792517;29;20073;-81
2021/04/13 04:56:09;;;;;;;22.70;13.07;;;1.40;99.90;;;2.44;85.64;102093.13;4808047;29;20035;-83
2021/04/13 04:58:35;;;;;;;24.42;12.73;;;1.50;99.90;;;2.45;85.85;102091.22;4796680;29;20039;-82
2021/04/13 05:01:03;;;;;;;22.38;11.80;;;1.50;99.90;;;2.46;85.91;102101.16;4812320;29;20473;-81
2021/04/13 05:03:29;;;;;;;28.30;15.32;;;1.50;99.90;;;2.46;85.77;102099.22;4811403;29;20458;-81
2021/04/13 05:05:57;;;;;;;21.77;13.25;;;1.50;99.90;;;2.50;85.59;102097.59;4792094;29;20114;-80
2021/04/13 05:08:26;;;;;;;24.17;13.68;;;1.50;99.90;;;2.52;85.86;102097.31;4807865;29;20036;-81
2021/04/13 05:10:53;;;;;;;23.08;12.85;;;1.60;99.90;;;2.59;85.29;102114.44;4806753;29;20043;-82
2021/04/13 05:13:21;;;;;;;21.92;12.85;;;1.60;99.90;;;2.62;85.10;102112.00;4805611;29;20047;-83
2021/04/13 05:15:48;;;;;;;23.98;13.75;;;1.70;99.90;;;2.65;84.92;102113.38;4804428;29;20376;-80
2021/04/13 05:18:14;;;;;;;24.25;12.43;;;1.70;99.90;;;2.70;85.32;102116.13;4805508;29;20039;-78
2021/04/13 05:20:40;;;;;;;21.15;12.23;;;1.70;99.90;;;2.74;84.77;102113.66;4805549;29;20043;-80
2021/04/13 05:23:06;;;;;;;22.90;12.80;;;1.70;99.90;;;2.84;84.54;102122.00;4807208;29;20515;-81
2021/04/13 05:25:33;;;;;;;21.63;11.95;;;1.80;99.90;;;2.83;84.39;102126.66;4791135;29;20046;-83
2021/04/13 05:27:59;;;;;;;25.13;12.20;;;1.80;99.90;;;2.86;83.82;102130.84;4806162;29;20045;-80
2021/04/13 05:30:26;;;;;;;24.20;12.05;;;1.90;99.90;;;2.92;84.28;102129.75;4791198;29;20039;-78
2021/04/13 05:32:53;;;;;;;19.65;11.50;;;1.90;99.90;;;2.91;84.11;102134.44;4807103;29;20488;-80
2021/04/13 05:35:23;;;;;;;23.80;12.23;;;1.90;99.90;;;2.95;84.30;102138.31;4805712;29;20070;-79
2021/04/13 05:37:50;;;;;;;26.85;11.73;;;2.00;99.90;;;2.94;84.40;102135.81;4807089;29;20401;-81
2021/04/13 05:40:30;;;;;;;22.73;11.93;;;2.00;99.90;;;3.15;83.43;102149.41;4805747;29;20486;-79
2021/04/13 05:42:59;;;;;;;21.67;12.23;;;2.10;99.90;;;3.11;83.58;102131.72;4792426;29;20137;-80
2021/04/13 05:45:34;;;;;;;20.15;11.27;;;2.10;99.90;;;3.20;83.23;102143.06;4809080;29;20066;-79
2021/04/13 05:48:03;;;;;;;24.80;12.27;;;2.20;99.90;;;3.25;82.62;102140.31;4815007;29;20072;-79
2021/04/13 05:50:37;;;;;;;21.17;11.98;;;2.20;99.90;;;3.13;82.82;102150.78;4806485;29;20038;-80
2021/04/13 05:53:04;;;;;;;17.45;11.20;;;2.20;99.90;;;3.28;82.66;102155.50;4791961;29;20069;-79
2021/04/13 05:55:31;;;;;;;21.40;12.30;;;2.20;99.90;;;3.26;82.73;102153.03;4810029;29;20122;-79
2021/04/13 05:58:11;;;;;;;22.92;11.90;;;2.20;99.90;;;3.26;82.70;102163.25;4808383;29;20027;-83
2021/04/13 06:00:37;;;;;;;23.00;12.93;;;2.20;99.90;;;3.28;82.92;102161.84;4809460;29;20515;-80
2021/04/13 06:03:04;;;;;;;20.35;11.43;;;2.30;99.90;;;3.31;82.71;102163.28;4811165;29;20118;-82
2021/04/13 06:05:32;;;;;;;21.65;12.00;;;2.30;99.90;;;3.51;82.47;102163.28;4793616;29;20144;-79
2021/04/13 06:07:59;;;;;;;22.83;12.05;;;2.40;99.90;;;3.70;81.96;102179.06;4795599;29;20400;-79
2021/04/13 06:10:26;;;;;;;23.88;12.43;;;2.60;99.90;;;3.86;81.26;102182.66;4814964;29;20041;-79
2021/04/13 06:12:57;;;;;;;19.17;12.23;;;2.70;99.90;;;3.94;80.65;102170.22;4813668;29;20038;-81
2021/04/13 06:15:28;;;;;;;21.48;13.15;;;2.80;99.90;;;4.13;80.41;102182.38;4793232;29;20073;-79
2021/04/13 06:17:55;;;;;;;22.10;11.23;;;3.00;99.90;;;4.03;80.47;102174.09;4796742;29;20373;-80
2021/04/13 06:20:25;;;;;;;17.88;11.50;;;3.00;99.90;;;4.03;81.20;102177.69;4812673;29;20031;-81
2021/04/13 06:22:52;;;;;;;26.20;12.65;;;3.10;99.90;;;4.17;79.97;102187.06;4819546;29;20030;-82
2021/04/13 06:25:23;;;;;;;18.70;11.00;;;3.10;99.90;;;4.26;79.05;102190.09;4805428;29;20370;-82
2021/04/13 06:27:51;;;;;;;18.13;10.35;;;3.20;99.90;;;4.50;79.35;102191.16;4809908;29;20114;-80
2021/04/13 06:30:21;;;;;;;22.75;11.68;;;3.30;99.90;;;4.89;78.41;102183.00;4843442;24;20043;-82
2021/04/13 06:32:48;;;;;;;23.40;10.65;;;3.60;99.90;;;5.23;77.48;102191.44;4818369;29;20111;-83
2021/04/13 06:35:16;;;;;;;20.88;10.18;;;3.90;99.90;;;5.61;74.73;102190.66;4815774;29;20031;-82
2021/04/13 06:37:46;;;;;;;16.45;10.82;;;4.30;99.90;;;6.09;74.23;102199.19;4832291;29;20030;-83
2021/04/13 06:40:57;;;;;;;20.45;11.13;;;4.60;99.90;;;6.51;72.29;102202.13;4813265;29;20058;-82
2021/04/13 06:44:11;;;;;;;20.40;10.50;;;5.00;99.90;;;6.89;70.31;102201.13;4814291;29;20500;-83
2021/04/13 06:47:12;;;;;;;18.30;8.73;;;5.40;99.90;;;6.88;70.19;102204.19;4797894;29;20094;-82
2021/04/13 06:50:24;;;;;;;14.60;8.82;;;5.50;99.90;;;7.09;69.09;102205.63;4813871;29;20035;-83
2021/04/13 06:53:30;;;;;;;13.73;8.70;;;5.60;99.90;;;7.04;69.05;102202.88;4813384;29;20050;-80
2021/04/13 06:56:41;;;;;;;20.77;9.23;;;5.70;99.90;;;7.29;67.66;102204.50;4797241;29;20046;-81
2021/04/13 07:00:02;;;;;;;25.13;9.27;;;5.90;99.90;;;7.42;66.60;102209.31;4796167;29;20225;-82
2021/04/13 07:02:58;;;;;;;16.80;7.18;;;6.10;99.90;;;7.54;66.57;102212.50;4796787;29;20112;-81
2021/04/13 07:05:39;;;;;;;26.52;7.93;;;6.20;99.90;;;7.60;66.32;102214.09;4804903;29;20070;-81
2021/04/13 07:08:12;;;;;;;28.52;6.72;;;6.30;99.90;;;7.82;66.07;102216.25;4807119;29;20559;-81
2021/04/13 07:10:54;;;;;;;21.83;6.18;;;6.40;99.90;;;8.12;63.85;102215.78;4780343;30;20035;-81
2021/04/13 07:13:59;;;;;;;21.00;7.22;;;6.70;99.90;;;7.61;65.28;102218.50;4795942;30;20088;-81
2021/04/13 07:16:40;;;;;;;16.77;6.25;;;6.60;99.90;;;7.17;67.08;102223.56;4794792;30;20042;-83
2021/04/13 07:19:18;;;;;;;17.40;6.15;;;6.30;99.90;;;7.78;66.88;102227.16;4795007;30;20046;-82
2021/04/13 07:22:15;;;;;;;11.18;5.25;;;6.50;99.90;;;8.70;64.30;102213.34;4779365;30;20074;-83
2021/04/13 07:25:10;;;;;;;10.85;4.75;;;7.00;99.90;;;9.24;60.78;102218.13;4796065;30;20038;-81
2021/04/13 07:27:54;;;;;;;13.82;5.65;;;7.70;99.90;;;9.56;59.84;102225.50;4794804;30;20067;-82
2021/04/13 07:30:43;;;;;;;16.00;4.55;;;8.10;99.90;;;9.64;58.31;102226.69;4794196;30;20065;-83
2021/04/13 07:33:34;;;;;;;12.18;4.97;;;8.20;99.90;;;9.12;60.48;102223.38;4794346;30;20035;-82
2021/04/13 07:36:13;;;;;;;11.93;5.20;;;7.90;99.90;;;9.31;59.68;102229.66;4795905;30;20039;-81
2021/04/13 07:38:49;;;;;;;9.63;4.88;;;8.00;99.90;;;9.60;59.50;102218.13;4809834;29;20022;-81
2021/04/13 07:41:32;;;;;;;;;;;8.20;99.90;;;9.22;60.12;102220.38;4834614;29;20064;-81
2021/04/13 07:44:43;;;;;;;10.20;5.18;;;8.00;99.90;;;8.98;61.46;102220.59;4817108;29;20014;-82
2021/04/13 07:48:05;;;;;;;11.05;4.97;;;7.80;99.90;;;9.10;61.05;102230.38;4827778;29;20525;-82
2021/04/13 07:50:57;;;;;;;17.25;5.05;;;7.70;99.90;;;8.85;61.96;102229.78;4828216;29;20121;-82
2021/04/13 07:54:10;;;;;;;15.65;4.75;;;7.50;99.90;;;8.57;62.23;102230.06;4813167;29;20141;-83
2021/04/13 07:57:33;;;;;;;12.13;5.10;;;7.30;99.90;;;8.03;64.02;102236.25;4829783;29;20038;-81
2021/04/13 08:00:25;;;;;;;10.95;4.60;;;6.90;99.90;;;7.72;65.33;102244.22;4815861;29;20117;-82
2021/04/13 08:03:32;;;;;;;10.68;4.18;;;6.60;99.90;;;7.65;65.79;102239.03;4813749;29;20536;-80
2021/04/13 08:06:24;;;;;;;16.17;5.25;;;6.50;99.90;;;7.61;65.81;102232.41;4812845;29;20391;-82
2021/04/13 08:09:24;;;;;;;13.93;4.38;;;6.40;99.90;;;7.46;65.98;102238.19;4799280;29;20580;-83
2021/04/13 08:12:20;;;;;;;15.30;4.95;;;6.30;99.90;;;7.48;66.04;102237.91;4793072;30;20031;-82
2021/04/13 08:14:56;;;;;;;9.70;4.35;;;6.40;99.90;;;8.22;65.31;102235.06;4791986;29;20481;-82
2021/04/13 08:17:28;;;;;;;13.32;4.63;;;6.80;99.90;;;9.70;60.70;102237.44;4806821;29;20031;-82
2021/04/13 08:20:08;;;;;;;6.45;3.25;;;8.00;99.90;;;10.13;57.64;102234.19;4792492;29;20414;-85
2021/04/13 08:22:53;;;;;;;11.50;3.58;;;8.60;99.90;;;10.16;57.44;102239.16;4793701;29;20085;-82
2021/04/13 08:25:45;;;;;;;9.63;3.85;;;8.70;99.90;;;9.40;59.11;102232.53;4793082;30;20314;-82
2021/04/13 08:28:37;;;;;;;8.38;2.80;;;8.40;99.90;;;8.87;60.71;102227.50;4793620;30;20044;-81
2021/04/13 08:35:20;;;;;;;11.50;2.72;;;7.40;99.90;;;9.49;58.91;102234.28;4793347;30;20043;-82
2021/04/13 08:38:16;;;;;;;7.95;2.00;;;8.10;99.90;;;10.69;54.54;102237.19;4763191;30;20059;-83
2021/04/13 08:41:11;;;;;;;9.65;2.17;;;9.00;99.90;;;11.50;53.13;102232.91;4791835;29;20084;-85
2021/04/13 08:43:51;;;;;;;12.02;1.83;;;9.70;99.90;;;11.55;52.38;102229.16;4777803;30;20039;-83
2021/04/13 08:46:53;;;;;;;11.80;1.85;;;10.00;99.90;;;11.96;49.64;102225.91;4792591;29;20050;-83
2021/04/13 08:49:22;;;;;;;6.50;1.50;;;10.20;99.90;;;10.90;50.97;102232.72;4804190;29;20055;-81
2021/04/13 08:52:15;;;;;;;10.63;2.45;;;9.70;99.90;;;9.87;54.27;102232.00;4802931;29;20436;-84
2021/04/13 08:54:48;;;;;;;6.63;1.90;;;9.00;99.90;;;9.24;56.20;102229.25;4792411;30;20031;-83
2021/04/13 08:57:37;;;;;;;8.50;2.00;;;8.30;99.90;;;8.54;59.05;102231.47;4792778;30;20111;-85
2021/04/13 09:00:37;;;;;;;13.27;1.83;;;7.50;99.90;;;7.93;60.93;102240.81;4789994;30;20045;-83
2021/04/13 09:03:11;;;;;;;9.82;1.90;;;7.00;99.90;;;7.65;61.50;102238.19;4793411;30;20050;-84
2021/04/13 09:05:41;;;;;;;9.75;1.77;;;6.60;99.90;;;8.40;57.75;102233.41;4791104;30;20035;-82
2021/04/13 09:08:13;;;;;;;9.77;1.77;;;7.20;99.90;;;9.83;54.90;102233.78;4801130;29;20049;-80
2021/04/13 09:11:23;;;;;;;7.22;1.48;;;8.20;99.90;;;10.88;49.50;102232.22;4811806;29;20046;-85
2021/04/13 09:14:30;;;;;;;8.30;1.15;;;9.10;99.90;;;11.39;45.83;102233.56;4830126;29;20065;-83
2021/04/13 09:17:27;;;;;;;8.47;1.43;;;9.90;90.20;;;12.29;44.24;102237.44;4830640;29;20056;-81
2021/04/13 09:20:12;;;;;;;4.75;1.13;;;10.50;85.10;;;12.93;42.63;102229.84;4813521;29;20035;-83
2021/04/13 09:23:26;;;;;;;9.20;1.70;;;11.20;81.30;;;13.32;43.11;102232.34;4813304;29;20503;-81
2021/04/13 09:25:52;;;;;;;7.20;1.50;;;11.50;79.00;;;12.65;44.33;102229.41;4830179;29;20126;-83
2021/04/13 09:28:40;;;;;;;6.60;1.70;;;11.40;79.40;;;12.21;43.85;102225.06;4816389;29;20130;-83
2021/04/13 09:31:12;;;;;;;4.20;1.25;;;11.10;77.90;;;11.55;47.35;102237.53;4817137;29;20255;-83
2021/04/13 09:33:43;;;;;;;9.52;1.70;;;10.50;83.20;;;10.56;48.86;102229.75;4818687;29;20031;-82
2021/04/13 09:37:14;;;;;;;6.72;1.70;;;9.80;86.00;;;10.57;49.92;102235.00;4834232;29;20069;-83
2021/04/13 09:40:14;;;;;;;7.85;2.45;;;9.50;91.00;;;11.77;46.60;102236.59;4834310;29;20038;-84
2021/04/13 09:43:16;;;;;;;4.40;1.63;;;10.20;86.00;;;10.85;45.87;102232.84;4833432;29;20042;-83
2021/04/13 09:46:00;;;;;;;9.35;1.92;;;9.80;79.80;;;10.57;48.86;102231.38;4816852;29;20030;-84
2021/04/13 09:48:54;;;;;;;7.47;1.67;;;9.50;87.90;;;10.91;49.90;102225.16;4832977;29;20187;-81
2021/04/13 09:52:41;;;;;;;5.25;1.90;;;9.60;92.70;;;12.00;46.48;102218.50;4833842;29;20090;-83
2021/04/13 09:55:53;;;;;;;8.20;2.13;;;10.30;90.00;;;12.37;45.49;102222.56;4807241;29;20043;-83
2021/04/13 09:59:06;;;;;;;4.40;1.30;;;11.00;82.20;;;11.44;46.59;102209.03;4834277;29;20089;-83
2021/04/13 10:01:58;;;;;;;7.50;2.35;;;10.60;81.20;;;11.57;47.42;102215.63;4846945;29;20099;-82
2021/04/13 10:04:54;;;;;;;7.65;1.48;;;10.50;82.90;;;12.78;44.48;102205.97;4830472;29;20078;-81
2021/04/13 10:07:38;;;;;;;6.55;1.33;;;11.10;81.80;;;13.36;42.63;102201.56;4830817;29;20028;-84
2021/04/13 10:10:21;;;;;;;7.68;1.30;;;11.80;76.10;;;13.55;39.94;102201.97;4807478;30;20036;-83
2021/04/13 10:13:50;;;;;;;6.22;1.75;;;12.20;68.90;;;13.00;38.47;102188.88;4796458;30;20119;-83
2021/04/13 10:17:24;;;;;;;6.15;1.55;;;11.90;63.90;;;13.87;38.87;102198.41;4795442;30;20039;-84
2021/04/13 10:20:29;;;;;;;4.00;1.00;;;12.20;67.30;;;13.63;37.93;102184.22;4778901;30;20035;-83
2021/04/13 10:23:31;;;;;;;5.95;1.00;;;12.20;63.40;;;12.82;35.72;102187.31;4779222;30;20050;-84
2021/04/13 10:26:10;;;;;;;5.68;1.20;;;11.60;59.90;;;11.86;39.98;102193.47;4795208;30;20404;-82
2021/04/13 10:29:11;;;;;;;6.93;1.60;;;10.80;64.70;;;10.88;44.62;102184.72;4808089;29;20061;-82
2021/04/13 10:32:18;;;;;;;4.13;1.42;;;9.90;71.70;;;10.24;47.21;102179.78;4778241;30;20047;-82
2021/04/13 10:35:26;;;;;;;8.20;1.57;;;9.10;79.20;;;9.39;48.66;102181.53;4808264;29;20035;-86
2021/04/13 10:38:37;;;;;;;7.43;2.10;;;8.60;82.60;;;9.23;49.83;102183.00;4787699;30;20059;-82
2021/04/13 10:42:03;;;;;;;9.00;2.40;;;8.20;89.20;;;10.32;47.81;102184.56;4803010;30;20061;-82
2021/04/13 10:45:45;;;;;;;3.55;1.30;;;8.80;87.60;;;12.24;42.68;102175.94;4801832;30;20031;-82
2021/04/13 10:48:48;;;;;;;4.95;1.60;;;10.20;76.10;;;13.51;40.69;102167.31;4698105;30;20057;-83
2021/04/13 10:51:41;;;;;;;10.40;1.70;;;11.60;70.50;;;13.70;39.02;102164.84;4794039;30;20592;-82
2021/04/13 10:55:09;;;;;;;6.72;1.80;;;12.00;67.40;;;11.82;41.38;102172.88;4793790;30;20047;-82
2021/04/13 10:58:18;;;;;;;5.78;1.63;;;11.10;67.80;;;10.93;42.90;102175.34;4793373;29;20035;-84
2021/04/13 11:01:00;;;;;;;6.82;1.40;;;10.30;71.10;;;11.92;42.04;102178.13;4793062;29;20404;-83
2021/04/13 11:03:59;;;;;;;11.20;2.22;;;10.50;70.70;;;12.53;40.26;102162.84;4796273;30;20042;-80
2021/04/13 11:07:51;;;;;;;6.90;1.50;;;11.10;69.20;;;13.02;40.61;102163.31;4811215;29;20039;-84
2021/04/13 11:11:17;;;;;;;4.22;1.65;;;11.60;68.60;;;12.67;39.49;102168.25;4686659;30;20479;-82
2021/04/13 11:14:29;;;;;;;6.43;1.63;;;11.70;66.00;;;12.36;41.08;102159.28;4707775;30;20134;-82
2021/04/13 11:17:55;;;;;;;2.75;0.63;;;11.30;67.30;;;12.88;34.52;102157.94;4785688;30;20031;-81
2021/04/13 11:21:00;;;;;;;4.00;1.27;;;11.70;58.30;;;13.04;33.11;102149.75;4781216;30;20301;-83
2021/04/13 11:24:22;;;;;;;5.43;1.00;;;12.00;53.50;;;13.07;32.32;102149.91;4794413;30;20115;-82
2021/04/13 11:27:24;;;;;;;10.30;1.23;;;12.00;53.40;;;12.04;35.63;102147.47;4792703;29;20088;-81
2021/04/13 11:31:15;;;;;;;7.47;1.30;;;11.20;57.00;;;11.41;38.94;102150.09;4793502;30;20062;-81
2021/04/13 11:34:13;;;;;;;4.03;1.35;;;10.40;61.70;;;10.59;40.71;102151.69;4701560;30;20030;-83
2021/04/13 11:37:17;;;;;;;9.40;1.60;;;9.70;65.20;;;10.27;41.69;102154.00;4795379;30;20035;-81